Terminal Aerodrome Forecast
Issued by NWS Wakefield, VA

Home | Current Version | Previous Version | Text Only | Print | Product List | Glossary On
Versions: 1 2 3 4 5 6 7 8 9 10 11 12 13 14 15 16 17 18 19
000
FTUS41 KAKQ 272300
TAFORF
TAF
KORF 272323Z 2800/2824 36006KT P6SM SCT030 BKN050
     FM280300 33010KT P6SM SCT050
     FM280800 33010G18KT P6SM SKC
     FM282000 33008KT P6SM SCT120=

USA.gov is the U.S. government's official web portal to all federal, state and local government web resources and services.